Time;durP1;ratioP1;P1;durP2;ratioP2;P2;SDS_P1;SDS_P2;PMS_P1;PMS_P2;Temp;Humidity;BMP_temperature;BMP_pressure;BME280_temperature;BME280_humidity;BME280_pressure;Samples;Min_cycle;Max_cycle;Signal;HPM_P1;HPM_P2
2021/09/15 00:01:42;;;;;;;;;;;;;;;19.08;94.78;101021.16;5070187;28;20306;-52
2021/09/15 00:04:09;;;;;;;;;;;;;;;19.05;94.81;101024.13;5069569;28;20318;-44
2021/09/15 00:06:36;;;;;;;;;;;;;;;19.06;94.65;101020.44;5069760;28;20422;-45
2021/09/15 00:09:02;;;;;;;;;;;;;;;19.04;95.32;101025.09;5070001;28;20288;-45
2021/09/15 00:11:29;;;;;;;;;;;;;;;19.04;95.33;101023.28;5067889;28;20376;-46
2021/09/15 00:13:56;;;;;;;;;;;;;;;19.04;95.25;101019.78;5068267;28;19930;-45
2021/09/15 00:16:23;;;;;;;;;;;;;;;19.01;95.22;101028.91;5052149;28;19925;-53
2021/09/15 00:18:49;;;;;;;;;;;;;;;19.01;95.31;101028.09;5069100;28;19978;-52
2021/09/15 00:21:16;;;;;;;;;;;;;;;19.00;95.14;101027.22;5068427;28;19929;-51
2021/09/15 00:23:43;;;;;;;;;;;;;;;19.02;95.25;101027.06;5069864;28;19931;-52
2021/09/15 00:26:09;;;;;;;;;;;;;;;19.01;94.40;101018.25;5069544;28;19925;-49
2021/09/15 00:28:36;;;;;;;;;;;;;;;19.00;94.19;101021.91;5051199;28;19931;-55
2021/09/15 00:31:03;;;;;;;;;;;;;;;18.96;94.78;101031.19;5074024;28;19924;-50
2021/09/15 00:33:29;;;;;;;;;;;;;;;19.00;94.56;101029.88;5073474;28;19970;-53
2021/09/15 00:35:56;;;;;;;;;;;;;;;18.96;95.06;101025.03;5072841;28;20005;-51
2021/09/15 00:38:22;;;;;;;;;;;;;;;18.94;95.25;101021.66;5073388;28;19924;-51
2021/09/15 00:40:49;;;;;;;;;;;;;;;18.94;95.23;101017.19;5073241;28;19924;-49
2021/09/15 00:43:16;;;;;;;;;;;;;;;18.94;95.43;101024.31;5071039;28;19928;-51
2021/09/15 00:45:42;;;;;;;;;;;;;;;18.94;95.42;101024.31;5073469;28;19928;-49
2021/09/15 00:48:09;;;;;;;;;;;;;;;18.94;95.59;101021.66;5073495;28;19928;-51
2021/09/15 00:50:35;;;;;;;;;;;;;;;18.95;95.44;101020.69;5071792;28;20427;-54
2021/09/15 00:53:02;;;;;;;;;;;;;;;18.87;95.44;101024.03;5072005;28;19929;-48
2021/09/15 00:55:29;;;;;;;;;;;;;;;18.83;95.37;101026.19;5072631;28;19928;-49
2021/09/15 00:57:56;;;;;;;;;;;;;;;18.82;95.38;101019.19;5070423;28;19928;-50
2021/09/15 01:00:23;;;;;;;;;;;;;;;18.81;95.41;101024.66;5073168;28;20020;-50
2021/09/15 01:02:50;;;;;;;;;;;;;;;18.80;95.50;101017.66;5071848;28;20379;-50
2021/09/15 01:05:16;;;;;;;;;;;;;;;18.75;95.96;101023.44;5072641;28;19925;-49
2021/09/15 01:07:43;;;;;;;;;;;;;;;18.71;95.53;101020.22;5073066;28;20338;-49
2021/09/15 01:10:10;;;;;;;;;;;;;;;18.72;95.44;101026.41;5072609;28;19928;-51
2021/09/15 01:12:36;;;;;;;;;;;;;;;18.71;95.18;101022.88;5053555;28;19928;-49
2021/09/15 01:15:03;;;;;;;;;;;;;;;18.68;95.27;101017.88;5071747;28;20318;-49
2021/09/15 01:17:30;;;;;;;;;;;;;;;18.63;95.50;101020.13;5072211;28;19936;-49
2021/09/15 01:19:57;;;;;;;;;;;;;;;18.61;95.61;101031.91;5071341;28;19928;-49
2021/09/15 01:22:25;;;;;;;;;;;;;;;18.62;96.08;101025.59;5072360;28;20721;-48
2021/09/15 01:24:52;;;;;;;;;;;;;;;18.61;95.27;101031.91;5071450;28;19979;-48
2021/09/15 01:27:19;;;;;;;;;;;;;;;18.59;95.69;101034.72;5070788;28;20436;-49
2021/09/15 01:29:45;;;;;;;;;;;;;;;18.53;95.91;101038.00;5072616;28;19974;-42
2021/09/15 01:32:12;;;;;;;;;;;;;;;18.53;95.91;101033.50;5071146;28;19959;-43
2021/09/15 01:34:43;;;;;;;;;;;;;;;18.52;95.72;101033.66;5071424;28;20307;-43
2021/09/15 01:37:12;;;;;;;;;;;;;;;18.50;95.09;101022.28;5072114;28;19932;-43
2021/09/15 01:39:39;;;;;;;;;;;;;;;18.49;95.23;101024.13;5071941;28;20317;-42
2021/09/15 01:42:06;;;;;;;;;;;;;;;18.47;95.15;101019.94;5069605;28;20645;-42
2021/09/15 01:44:33;;;;;;;;;;;;;;;18.47;95.06;101030.59;5070181;28;19925;-47
2021/09/15 01:47:00;;;;;;;;;;;;;;;18.38;95.27;101011.84;5071681;28;20433;-43
2021/09/15 01:49:31;;;;;;;;;;;;;;;18.34;95.11;101010.47;5071541;28;20037;-47
2021/09/15 01:51:58;;;;;;;;;;;;;;;18.35;95.05;101012.16;5071141;28;19924;-45
2021/09/15 01:54:25;;;;;;;;;;;;;;;18.37;94.92;101007.50;5054220;28;19924;-44
2021/09/15 01:56:51;;;;;;;;;;;;;;;18.37;94.70;101004.00;5069899;28;19935;-53
2021/09/15 01:59:18;;;;;;;;;;;;;;;18.35;94.58;100995.31;5070034;28;20307;-53
2021/09/15 02:01:45;;;;;;;;;;;;;;;18.35;94.45;100993.50;5071298;28;19932;-49
2021/09/15 02:04:11;;;;;;;;;;;;;;;18.29;94.52;100990.59;5070257;28;19974;-52
2021/09/15 02:06:38;;;;;;;;;;;;;;;18.24;94.69;100989.22;5070967;28;20315;-50
2021/09/15 02:09:05;;;;;;;;;;;;;;;18.22;95.12;100990.34;5071904;28;19932;-52
2021/09/15 02:11:33;;;;;;;;;;;;;;;18.24;94.69;100988.34;5070287;28;19932;-54
2021/09/15 02:13:59;;;;;;;;;;;;;;;18.19;94.88;100991.47;5070367;28;19925;-52
2021/09/15 02:16:26;;;;;;;;;;;;;;;18.12;95.32;100978.88;5071733;28;19928;-45
2021/09/15 02:18:53;;;;;;;;;;;;;;;18.11;95.03;100978.06;5071047;28;19932;-44
2021/09/15 02:21:23;;;;;;;;;;;;;;;18.09;95.70;100985.34;5071470;28;20317;-45
2021/09/15 02:23:50;;;;;;;;;;;;;;;18.00;95.58;100987.06;5071316;28;19936;-44
2021/09/15 02:26:16;;;;;;;;;;;;;;;18.01;95.74;100983.41;5071111;28;19928;-44
2021/09/15 02:28:43;;;;;;;;;;;;;;;17.97;96.53;100986.50;5068875;28;19925;-44
2021/09/15 02:31:10;;;;;;;;;;;;;;;17.95;96.23;100993.81;5071705;28;19982;-45
2021/09/15 02:33:37;;;;;;;;;;;;;;;17.94;96.99;100987.63;5071068;28;20414;-42
2021/09/15 02:36:03;;;;;;;;;;;;;;;17.95;96.69;100983.97;5071327;28;19924;-45
2021/09/15 02:38:30;;;;;;;;;;;;;;;17.94;96.93;100992.94;5070449;28;20049;-48
2021/09/15 02:40:57;;;;;;;;;;;;;;;17.94;97.16;100992.94;5053422;28;19978;-51
2021/09/15 02:43:23;;;;;;;;;;;;;;;17.92;97.32;100984.28;5068246;28;20019;-42
2021/09/15 02:45:50;;;;;;;;;;;;;;;17.92;97.22;100986.94;5071335;28;19925;-53
2021/09/15 02:48:17;;;;;;;;;;;;;;;17.92;97.41;100983.47;5071138;28;19931;-48
2021/09/15 02:50:43;;;;;;;;;;;;;;;17.93;98.00;100987.78;5070517;28;19928;-51
2021/09/15 02:53:10;;;;;;;;;;;;;;;17.93;97.78;100983.31;5070927;28;19970;-50
2021/09/15 02:55:36;;;;;;;;;;;;;;;17.92;97.92;100978.97;5069445;28;19931;-52
2021/09/15 02:58:04;;;;;;;;;;;;;;;17.90;97.60;100975.56;5068479;28;20118;-49
2021/09/15 03:00:30;;;;;;;;;;;;;;;17.93;97.54;100972.66;5069415;28;20437;-52
2021/09/15 03:02:57;;;;;;;;;;;;;;;17.87;97.57;100963.41;5069328;28;19932;-49
2021/09/15 03:05:24;;;;;;;;;;;;;;;17.84;97.43;100955.69;5070467;28;19960;-50
2021/09/15 03:07:50;;;;;;;;;;;;;;;17.88;97.69;100967.72;5068828;28;19931;-52
2021/09/15 03:10:17;;;;;;;;;;;;;;;17.96;97.31;100966.22;5070625;28;19929;-52
2021/09/15 03:12:44;;;;;;;;;;;;;;;17.94;97.33;100958.34;5068885;28;19986;-48
2021/09/15 03:15:10;;;;;;;;;;;;;;;17.90;97.51;100962.25;5070025;28;19928;-45
2021/09/15 03:17:37;;;;;;;;;;;;;;;17.89;97.24;100969.41;5070766;28;19924;-52
2021/09/15 03:20:04;;;;;;;;;;;;;;;17.91;97.51;100955.97;5069885;28;19924;-52
2021/09/15 03:22:31;;;;;;;;;;;;;;;17.93;97.44;100953.19;5068840;28;20069;-49
2021/09/15 03:24:58;;;;;;;;;;;;;;;17.94;97.49;100954.88;5069935;28;20389;-49
2021/09/15 03:27:25;;;;;;;;;;;;;;;17.93;97.37;100953.19;5068915;28;19928;-49
2021/09/15 03:29:52;;;;;;;;;;;;;;;17.94;97.43;100960.19;5068911;28;19974;-44
2021/09/15 03:32:18;;;;;;;;;;;;;;;17.90;97.39;100956.94;5068425;28;19970;-42
2021/09/15 03:34:45;;;;;;;;;;;;;;;17.88;97.70;100953.59;5069172;28;20391;-42
2021/09/15 03:37:12;;;;;;;;;;;;;;;17.85;97.98;100956.56;5069611;28;19936;-44
2021/09/15 03:39:38;;;;;;;;;;;;;;;17.84;98.19;100947.72;5069300;28;20374;-44
2021/09/15 03:42:05;;;;;;;;;;;;;;;17.86;98.39;100943.09;5069476;28;19925;-45
2021/09/15 03:44:32;;;;;;;;;;;;;;;17.85;98.26;100948.56;5068577;28;20430;-43
2021/09/15 03:46:59;;;;;;;;;;;;;;;17.81;98.54;100952.50;5070357;28;19924;-45
2021/09/15 03:49:26;;;;;;;;;;;;;;;17.77;99.47;100948.47;5051497;28;19928;-43
2021/09/15 03:51:52;;;;;;;;;;;;;;;17.78;99.29;100950.13;5070418;28;19981;-44
2021/09/15 03:54:19;;;;;;;;;;;;;;;17.80;99.32;100945.50;5069689;28;20334;-53
2021/09/15 03:56:46;;;;;;;;;;;;;;;17.86;99.14;100943.09;5068213;28;20337;-50
2021/09/15 03:59:12;;;;;;;;;;;;;;;17.82;99.38;100941.72;5069245;28;19935;-51
2021/09/15 04:01:39;;;;;;;;;;;;;;;17.86;99.42;100943.09;5070241;28;19966;-49
2021/09/15 04:04:06;;;;;;;;;;;;;;;17.86;99.90;100936.94;5068951;28;19936;-48
2021/09/15 04:06:32;;;;;;;;;;;;;;;17.84;99.55;100930.94;5051904;28;19978;-53
2021/09/15 04:08:59;;;;;;;;;;;;;;;17.85;99.89;100938.75;5069654;28;20015;-49
2021/09/15 04:11:25;;;;;;;;;;;;;;;17.87;100.00;100927.97;5071172;28;19963;-43
2021/09/15 04:13:52;;;;;;;;;;;;;;;17.92;100.00;100922.25;5070429;28;19940;-41
2021/09/15 04:16:19;;;;;;;;;;;;;;;17.94;100.00;100928.25;5069731;28;19925;-43
2021/09/15 04:18:46;;;;;;;;;;;;;;;17.97;100.00;100928.81;5069693;28;19925;-45
2021/09/15 04:21:13;;;;;;;;;;;;;;;17.98;100.00;100927.00;5060853;28;19940;-44
2021/09/15 04:31:55;;;;;;;;;;;;;;;17.97;100.00;100930.63;5068947;28;20375;-49
2021/09/15 04:34:22;;;;;;;;;;;;;;;17.98;100.00;100930.47;5068330;28;20011;-48
2021/09/15 04:36:48;;;;;;;;;;;;;;;17.98;100.00;100925.16;5067287;28;20394;-48
2021/09/15 04:39:15;;;;;;;;;;;;;;;17.97;100.00;100931.47;5068702;28;19966;-51
2021/09/15 04:41:41;;;;;;;;;;;;;;;17.99;100.00;100934.00;5068767;28;20291;-50
2021/09/15 04:44:08;;;;;;;;;;;;;;;18.01;100.00;100934.66;5069002;28;19924;-51
2021/09/15 04:46:35;;;;;;;;;;;;;;;18.00;100.00;100931.19;5069906;28;20310;-53
2021/09/15 04:49:01;;;;;;;;;;;;;;;17.99;100.00;100929.50;5069423;28;19932;-44
2021/09/15 04:51:28;;;;;;;;;;;;;;;18.00;100.00;100936.50;5069515;28;19962;-44
2021/09/15 04:53:55;;;;;;;;;;;;;;;18.00;100.00;100941.00;5069404;28;19925;-41
2021/09/15 04:56:21;;;;;;;;;;;;;;;17.99;100.00;100941.97;5069509;28;19931;-45
2021/09/15 04:58:48;;;;;;;;;;;;;;;17.99;100.00;100945.47;5068303;28;20460;-45
2021/09/15 05:01:15;;;;;;;;;;;;;;;17.98;100.00;100941.13;5068197;28;19931;-43
2021/09/15 05:03:41;;;;;;;;;;;;;;;17.97;100.00;100949.25;5069009;28;20111;-45
2021/09/15 05:06:08;;;;;;;;;;;;;;;17.99;100.00;100939.31;5068133;28;19955;-46
2021/09/15 05:08:35;;;;;;;;;;;;;;;17.98;100.00;100937.63;5069159;28;19928;-47
2021/09/15 05:11:01;;;;;;;;;;;;;;;17.98;100.00;100942.94;5068029;28;19925;-47
2021/09/15 05:13:28;;;;;;;;;;;;;;;17.96;100.00;100942.28;5067684;28;20023;-43
2021/09/15 05:15:55;;;;;;;;;;;;;;;17.97;100.00;100943.94;5071764;28;19924;-43
2021/09/15 05:18:23;;;;;;;;;;;;;;;18.04;100.00;100945.88;5071481;28;20383;-45
2021/09/15 05:20:50;;;;;;;;;;;;;;;18.05;100.00;100941.38;5072325;28;19929;-46
2021/09/15 05:23:16;;;;;;;;;;;;;;;18.02;100.00;100937.19;5072454;28;19947;-44
2021/09/15 05:25:43;;;;;;;;;;;;;;;18.03;100.00;100949.50;5071472;28;19928;-44
2021/09/15 05:28:10;;;;;;;;;;;;;;;18.05;100.00;100947.56;5071585;28;19931;-46
2021/09/15 05:30:36;;;;;;;;;;;;;;;18.02;100.00;100953.16;5073216;28;20015;-45
2021/09/15 05:33:03;;;;;;;;;;;;;;;18.03;100.00;100952.16;5071449;28;20452;-43
2021/09/15 05:35:30;;;;;;;;;;;;;;;18.04;100.00;100956.50;5071916;28;19925;-47
2021/09/15 05:37:56;;;;;;;;;;;;;;;18.05;100.00;100950.22;5072231;28;19928;-43
2021/09/15 05:40:23;;;;;;;;;;;;;;;18.06;100.00;100948.38;5072442;28;20437;-44
2021/09/15 05:42:49;;;;;;;;;;;;;;;18.14;100.00;100959.13;5070796;28;20295;-44
2021/09/15 05:45:16;;;;;;;;;;;;;;;18.11;100.00;100948.78;5071755;28;19925;-41
2021/09/15 05:47:43;;;;;;;;;;;;;;;18.11;100.00;100953.28;5072062;28;19951;-47
2021/09/15 05:50:09;;;;;;;;;;;;;;;18.12;100.00;100952.28;5071660;28;20014;-49
2021/09/15 05:52:36;;;;;;;;;;;;;;;18.10;100.00;100947.09;5071917;28;19962;-47
2021/09/15 05:55:03;;;;;;;;;;;;;;;18.16;100.00;100953.66;5071563;28;20284;-47
2021/09/15 05:57:30;;;;;;;;;;;;;;;18.19;100.00;100953.38;5070255;28;20392;-47
2021/09/15 05:59:56;;;;;;;;;;;;;;;18.17;100.00;100950.00;5072164;28;19928;-49
2021/09/15 06:02:23;;;;;;;;;;;;;;;18.19;100.00;100958.72;5071817;28;19928;-49
2021/09/15 06:04:50;;;;;;;;;;;;;;;18.19;100.00;100953.38;5071665;28;19931;-41
2021/09/15 06:07:16;;;;;;;;;;;;;;;18.18;100.00;100949.03;5070855;28;20271;-42
2021/09/15 06:09:43;;;;;;;;;;;;;;;18.20;100.00;100953.22;5071918;28;19929;-41
2021/09/15 06:12:09;;;;;;;;;;;;;;;18.22;100.00;100948.59;5070929;28;19978;-42
2021/09/15 06:14:36;;;;;;;;;;;;;;;18.24;100.00;100949.28;5072115;28;20011;-42
2021/09/15 06:17:03;;;;;;;;;;;;;;;18.24;100.00;100951.94;5071753;28;20395;-42
2021/09/15 06:19:29;;;;;;;;;;;;;;;18.23;100.00;100950.25;5071423;28;19931;-41
2021/09/15 06:21:56;;;;;;;;;;;;;;;18.23;100.00;100952.09;5070481;28;19928;-42
2021/09/15 06:24:23;;;;;;;;;;;;;;;18.23;100.00;100952.09;5069847;28;19929;-47
2021/09/15 06:26:51;;;;;;;;;;;;;;;18.22;100.00;100948.59;5069837;28;19924;-42
2021/09/15 06:29:18;;;;;;;;;;;;;;;18.28;100.00;100954.31;5070093;28;19928;-42
2021/09/15 06:31:45;;;;;;;;;;;;;;;18.34;100.00;100949.22;5070609;28;19924;-43
2021/09/15 06:34:12;;;;;;;;;;;;;;;18.29;100.00;100959.47;5070755;28;19930;-44
2021/09/15 06:36:39;;;;;;;;;;;;;;;18.28;100.00;100956.97;5071238;28;20307;-43
2021/09/15 06:39:09;;;;;;;;;;;;;;;18.31;100.00;100957.53;5071220;28;19928;-42
2021/09/15 06:41:36;;;;;;;;;;;;;;;18.29;100.00;100956.81;5069734;28;19931;-42
2021/09/15 06:44:05;;;;;;;;;;;;;;;18.30;100.00;100955.84;5070036;28;20208;-46
2021/09/15 06:46:31;;;;;;;;;;;;;;;18.33;100.00;100949.38;5053234;28;20291;-43
2021/09/15 06:49:00;;;;;;;;;;;;;;;18.35;100.00;100953.56;5070612;28;19928;-42
2021/09/15 06:51:26;;;;;;;;;;;;;;;18.33;100.00;100952.88;5071213;28;19978;-44
2021/09/15 06:53:53;;;;;;;;;;;;;;;18.35;100.00;100958.91;5069644;28;19928;-42
2021/09/15 06:56:19;;;;;;;;;;;;;;;18.36;100.00;100952.56;5070743;28;19928;-44
2021/09/15 06:58:46;;;;;;;;;;;;;;;18.37;100.00;100951.59;5069171;28;20410;-45
2021/09/15 07:01:13;;;;;;;;;;;;;;;18.38;100.00;100953.28;5071062;28;20399;-43
2021/09/15 07:03:40;;;;;;;;;;;;;;;18.38;100.00;100961.25;5070476;28;19924;-43
2021/09/15 07:06:07;;;;;;;;;;;;;;;18.38;100.00;100961.25;5070662;28;19932;-41
2021/09/15 07:08:33;;;;;;;;;;;;;;;18.40;100.00;100959.28;5070715;28;19928;-46
2021/09/15 07:11:00;;;;;;;;;;;;;;;18.41;100.00;100957.47;5070426;28;19925;-49
2021/09/15 07:13:29;;;;;;;;;;;;;;;18.41;100.00;100966.28;5069110;28;19931;-51
2021/09/15 07:15:57;;;;;;;;;;;;;;;18.42;100.00;100967.97;5070413;28;20379;-50
2021/09/15 07:18:25;;;;;;;;;;;;;;;18.43;100.00;100968.78;5070577;28;19925;-50
2021/09/15 07:20:52;;;;;;;;;;;;;;;18.46;100.00;100959.66;5070367;28;19960;-50
2021/09/15 07:23:18;;;;;;;;;;;;;;;18.47;100.00;100966.69;5070220;28;19924;-52
2021/09/15 07:25:45;;;;;;;;;;;;;;;18.46;100.00;100960.53;5069851;28;20019;-51
2021/09/15 07:28:12;;;;;;;;;;;;;;;18.47;100.00;100961.34;5068986;28;19936;-50
2021/09/15 07:30:38;;;;;;;;;;;;;;;18.50;100.00;100967.22;5069374;28;19978;-48
2021/09/15 07:33:05;;;;;;;;;;;;;;;18.51;100.00;100965.41;5070145;28;19928;-50
2021/09/15 07:35:32;;;;;;;;;;;;;;;18.49;100.00;100967.38;5069678;28;19931;-50
2021/09/15 07:37:58;;;;;;;;;;;;;;;18.51;100.00;100965.41;5069582;28;19925;-50
2021/09/15 07:40:25;;;;;;;;;;;;;;;18.54;100.00;100981.06;5069687;28;19928;-47
2021/09/15 07:42:52;;;;;;;;;;;;;;;18.57;100.00;100970.13;5068628;28;19931;-51
2021/09/15 07:45:18;;;;;;;;;;;;;;;18.58;100.00;100966.47;5070258;28;19936;-50
2021/09/15 07:47:45;;;;;;;;;;;;;;;18.58;100.00;100972.66;5070181;28;19928;-51
2021/09/15 07:50:12;;;;;;;;;;;;;;;18.55;100.00;100980.09;5068741;28;19924;-50
2021/09/15 07:52:39;;;;;;;;;;;;;;;18.57;100.00;100983.47;5070512;28;19924;-48
2021/09/15 07:55:06;;;;;;;;;;;;;;;18.60;100.00;100983.16;5068841;28;19924;-49
2021/09/15 07:57:33;;;;;;;;;;;;;;;18.62;100.00;100972.34;5067234;28;19928;-51
2021/09/15 08:00:01;;;;;;;;;;;;;;;18.63;100.00;100982.84;5069103;28;19986;-50
2021/09/15 08:02:28;;;;;;;;;;;;;;;18.66;100.00;100974.53;5051883;28;19935;-51
2021/09/15 08:04:54;;;;;;;;;;;;;;;18.67;100.00;100976.22;5069455;28;19928;-51
2021/09/15 08:07:21;;;;;;;;;;;;;;;18.71;100.00;100971.44;5069734;28;19931;-47
2021/09/15 08:09:48;;;;;;;;;;;;;;;18.73;100.00;100977.44;5069808;28;19925;-51
2021/09/15 08:12:14;;;;;;;;;;;;;;;18.74;100.00;100976.47;5050274;28;19976;-48
2021/09/15 08:14:41;;;;;;;;;;;;;;;18.79;100.00;100984.00;5069520;28;19924;-50
2021/09/15 08:17:07;;;;;;;;;;;;;;;18.76;100.00;100977.16;5069536;28;20342;-49
2021/09/15 08:19:34;;;;;;;;;;;;;;;18.77;100.00;100975.34;5069561;28;19932;-51
2021/09/15 08:22:01;;;;;;;;;;;;;;;18.75;100.00;100981.66;5070022;28;20449;-49
2021/09/15 08:24:27;;;;;;;;;;;;;;;18.77;100.00;100983.31;5068056;28;19928;-42
2021/09/15 08:26:55;;;;;;;;;;;;;;;18.78;100.00;100967.19;5035208;28;19936;-44
2021/09/15 08:29:22;;;;;;;;;;;;;;;18.84;100.00;100965.75;5068983;28;19978;-41
2021/09/15 08:31:49;;;;;;;;;;;;;;;18.86;100.00;100966.44;5069136;28;19925;-42
2021/09/15 08:34:16;;;;;;;;;;;;;;;18.90;100.00;100963.34;5067504;28;19924;-42
2021/09/15 08:36:43;;;;;;;;;;;;;;;18.84;100.00;100963.06;5069124;28;19929;-44
2021/09/15 08:39:09;;;;;;;;;;;;;;;18.89;100.00;100961.66;5069607;28;20041;-42
2021/09/15 08:41:36;;;;;;;;;;;;;;;18.94;100.00;100957.69;5069661;28;19924;-45
2021/09/15 08:44:03;;;;;;;;;;;;;;;19.00;100.00;100957.94;5068320;28;19935;-43
2021/09/15 08:46:30;;;;;;;;;;;;;;;18.99;100.00;100964.28;5068282;28;19924;-46
2021/09/15 08:48:58;;;;;;;;;;;;;;;19.03;100.00;100956.78;5067439;28;20504;-44
2021/09/15 08:51:24;;;;;;;;;;;;;;;19.09;100.00;100953.53;5072446;28;20409;-45
2021/09/15 08:53:52;;;;;;;;;;;;;;;19.17;100.00;100955.41;5055253;28;19929;-45
2021/09/15 08:56:18;;;;;;;;;;;;;;;19.25;100.00;100953.66;5072823;28;20395;-43
2021/09/15 08:58:45;;;;;;;;;;;;;;;19.29;100.00;100959.50;5071885;28;20025;-42
2021/09/15 09:01:22;;;;;;;;;;;;;;;19.35;100.00;100966.09;5072952;28;19978;-46
2021/09/15 09:03:52;;;;;;;;;;;;;;;19.40;100.00;100961.97;5054843;28;19924;-43
2021/09/15 09:06:25;;;;;;;;;;;;;;;19.49;100.00;100965.50;5072956;28;19931;-45
2021/09/15 09:08:53;;;;;;;;;;;;;;;19.58;100.00;100974.41;5071627;28;19947;-51
2021/09/15 09:11:23;;;;;;;;;;;;;;;19.62;100.00;100973.13;5072684;28;19924;-52
2021/09/15 09:13:56;;;;;;;;;;;;;;;19.68;100.00;100968.97;5054273;28;19986;-53
2021/09/15 09:16:42;;;;;;;;;;;;;;;19.66;100.00;100954.94;5072793;28;20011;-45
2021/09/15 09:19:10;;;;;;;;;;;;;;;19.76;100.00;100953.84;5071490;28;19928;-42
2021/09/15 09:21:37;;;;;;;;;;;;;;;19.88;100.00;100957.13;5072947;28;20341;-43
2021/09/15 09:24:05;;;;;;;;;;;;;;;19.93;100.00;100953.97;5072919;28;20307;-43
2021/09/15 09:26:50;;;;;;;;;;;;;;;20.07;100.00;100941.88;5072649;28;19924;-44
2021/09/15 09:29:19;;;;;;;;;;;;;;;20.30;98.17;100949.31;5071650;28;19924;-44
2021/09/15 09:32:05;;;;;;;;;;;;;;;20.31;96.66;100946.47;5072849;28;19929;-46
2021/09/15 09:34:40;;;;;;;;;;;;;;;20.56;98.10;100941.19;5071959;28;19928;-48
2021/09/15 09:37:13;;;;;;;;;;;;;;;20.61;95.68;100952.25;5072053;28;19963;-46
2021/09/15 09:39:41;;;;;;;;;;;;;;;20.66;94.74;100955.25;5072132;28;19935;-44
2021/09/15 09:42:32;;;;;;;;;;;;;;;20.69;93.22;100956.81;5071594;28;19936;-44
2021/09/15 09:45:06;;;;;;;;;;;;;;;20.75;93.13;100959.66;5069388;28;19924;-50
2021/09/15 09:47:34;;;;;;;;;;;;;;;20.79;92.65;100960.16;5071948;28;19924;-52
2021/09/15 09:50:01;;;;;;;;;;;;;;;20.83;94.61;100963.34;5070253;28;19925;-53
2021/09/15 09:52:28;;;;;;;;;;;;;;;20.92;94.29;100962.34;5071806;28;20391;-52
2021/09/15 09:54:59;;;;;;;;;;;;;;;20.90;95.11;100961.66;5070287;28;19936;-53
2021/09/15 09:57:26;;;;;;;;;;;;;;;20.95;95.46;100967.38;5068753;28;20044;-52
2021/09/15 09:59:54;;;;;;;;;;;;;;;20.94;94.82;100969.22;5071828;28;20425;-53
2021/09/15 10:02:20;;;;;;;;;;;;;;;20.97;94.55;100967.19;5070591;28;19955;-50
2021/09/15 10:04:47;;;;;;;;;;;;;;;21.00;93.68;100973.06;5071487;28;19947;-50
2021/09/15 10:07:14;;;;;;;;;;;;;;;21.02;94.79;100972.88;5072146;28;20283;-50
2021/09/15 10:09:44;;;;;;;;;;;;;;;21.10;94.03;100979.09;5071966;28;20344;-52
2021/09/15 10:12:11;;;;;;;;;;;;;;;21.05;94.77;100976.06;5070530;28;20272;-53
2021/09/15 10:14:38;;;;;;;;;;;;;;;21.05;95.08;100965.38;5070613;28;20671;-52
2021/09/15 10:17:04;;;;;;;;;;;;;;;21.04;94.13;100971.72;5070562;28;19970;-52
2021/09/15 10:19:32;;;;;;;;;;;;;;;21.09;94.30;100968.53;5071068;28;19928;-52
2021/09/15 10:22:00;;;;;;;;;;;;;;;21.17;94.15;100968.53;5070803;28;19975;-50
2021/09/15 10:24:45;;;;;;;;;;;;;;;21.28;95.43;100964.69;5070996;28;19968;-52
2021/09/15 10:27:12;;;;;;;;;;;;;;;21.37;93.85;100960.19;5070154;28;19924;-52
2021/09/15 10:29:42;;;;;;;;;;;;;;;21.41;92.20;100961.53;5069890;28;20446;-53
2021/09/15 10:32:12;;;;;;;;;;;;;;;21.51;92.73;100962.19;5071717;28;19925;-50
2021/09/15 10:37:05;;;;;;;;;;;;;;;21.50;92.53;100968.56;5071441;28;19967;-54
2021/09/15 10:39:31;;;;;;;;;;;;;;;21.45;91.87;100968.22;5069856;28;19929;-54
2021/09/15 10:41:58;;;;;;;;;;;;;;;21.51;91.86;100974.72;5070619;28;20450;-51
2021/09/15 10:44:25;;;;;;;;;;;;;;;21.55;91.57;100970.75;5068690;28;19928;-48
2021/09/15 10:47:10;;;;;;;;;;;;;;;21.45;91.80;100971.72;5070082;28;19986;-53
2021/09/15 10:49:41;;;;;;;;;;;;;;;21.49;92.32;100980.25;5071031;28;19924;-52
2021/09/15 10:52:10;;;;;;;;;;;;;;;21.56;91.17;100978.59;5071166;28;20039;-53
2021/09/15 10:54:40;;;;;;;;;;;;;;;21.54;90.54;100979.78;5071158;28;19924;-53
2021/09/15 10:57:11;;;;;;;;;;;;;;;21.53;90.35;100972.75;5069896;28;19924;-53
2021/09/15 11:00:13;;;;;;;;;;;;;;;21.49;90.56;100982.06;5070628;28;19939;-53
2021/09/15 11:02:42;;;;;;;;;;;;;;;21.64;91.23;100975.09;5048645;28;19928;-49
2021/09/15 11:05:35;;;;;;;;;;;;;;;21.61;90.17;100972.75;5063194;28;19932;-48
2021/09/15 11:08:02;;;;;;;;;;;;;;;21.71;88.86;100969.91;5068691;28;19924;-53
2021/09/15 11:10:34;;;;;;;;;;;;;;;21.85;88.56;100971.03;5069573;28;19932;-45
2021/09/15 11:13:21;;;;;;;;;;;;;;;21.96;87.86;100978.69;5068377;28;19924;-43
2021/09/15 11:15:49;;;;;;;;;;;;;;;21.80;85.59;100976.91;5058597;28;19932;-52
2021/09/15 11:18:15;;;;;;;;;;;;;;;21.98;85.49;100970.47;5068023;28;20354;-55
2021/09/15 11:20:42;;;;;;;;;;;;;;;22.19;85.46;100972.59;5069893;28;19928;-55
2021/09/15 11:23:09;;;;;;;;;;;;;;;22.44;85.91;100978.69;5069814;28;20484;-44
2021/09/15 11:25:36;;;;;;;;;;;;;;;22.66;82.33;100977.09;5068344;28;19944;-43
2021/09/15 11:28:06;;;;;;;;;;;;;;;22.66;80.07;100978.94;5068282;28;19932;-45
2021/09/15 11:30:34;;;;;;;;;;;;;;;22.87;81.06;100981.00;5070054;28;19974;-54
2021/09/15 11:33:00;;;;;;;;;;;;;;;22.85;79.71;100980.31;5068367;28;19924;-53
2021/09/15 11:35:27;;;;;;;;;;;;;;;22.75;79.21;100984.06;5068899;28;20359;-55
2021/09/15 11:37:54;;;;;;;;;;;;;;;22.85;79.00;100983.84;5069549;28;19928;-44
2021/09/15 11:40:25;;;;;;;;;;;;;;;22.93;77.35;100991.00;5069630;28;19932;-44
2021/09/15 11:42:52;;;;;;;;;;;;;;;22.88;77.68;100978.13;5067105;28;19935;-45
2021/09/15 11:45:19;;;;;;;;;;;;;;;22.84;77.13;100992.91;5069377;28;19928;-44
2021/09/15 11:47:50;;;;;;;;;;;;;;;22.86;78.87;100990.03;5069231;28;19933;-46
2021/09/15 11:50:17;;;;;;;;;;;;;;;22.97;77.30;100986.94;5068884;28;19931;-54
2021/09/15 11:52:46;;;;;;;;;;;;;;;23.03;76.60;100988.91;5069343;28;19955;-52
2021/09/15 11:55:15;;;;;;;;;;;;;;;22.93;75.35;100983.81;5068944;28;19924;-44
2021/09/15 11:57:51;;;;;;;;;;;;;;;22.91;75.83;100984.97;5067366;28;20344;-47
2021/09/15 12:00:18;;;;;;;;;;;;;;;22.98;76.85;100990.47;5068153;28;19928;-44
2021/09/15 12:02:45;;;;;;;;;;;;;;;22.86;76.47;100990.03;5067386;28;20409;-53
2021/09/15 12:05:12;;;;;;;;;;;;;;;22.97;78.04;100992.31;5068942;28;19986;-54
2021/09/15 12:07:40;;;;;;;;;;;;;;;22.78;77.69;100998.94;5068833;28;19931;-44
2021/09/15 12:10:10;;;;;;;;;;;;;;;22.74;76.15;101001.19;5068048;28;19928;-43
2021/09/15 12:12:37;;;;;;;;;;;;;;;22.68;75.81;101003.72;5068103;28;20578;-44
2021/09/15 12:15:06;;;;;;;;;;;;;;;22.79;77.45;101011.34;5067814;28;19932;-45
2021/09/15 12:17:33;;;;;;;;;;;;;;;22.77;75.04;100997.31;5067415;28;19970;-55
2021/09/15 12:20:00;;;;;;;;;;;;;;;22.81;75.03;101003.13;5067581;28;19925;-53
2021/09/15 12:22:29;;;;;;;;;;;;;;;23.02;74.68;100994.47;5067193;28;19940;-54
2021/09/15 12:25:04;;;;;;;;;;;;;;;22.88;73.11;100996.91;5069798;28;19928;-53
2021/09/15 12:27:31;;;;;;;;;;;;;;;22.99;72.53;100995.66;5070822;28;19928;-51
2021/09/15 12:30:03;;;;;;;;;;;;;;;22.94;73.81;100998.03;5072492;28;19982;-54
2021/09/15 12:32:30;;;;;;;;;;;;;;;23.01;74.03;100996.28;5072278;28;20682;-51
2021/09/15 12:34:58;;;;;;;;;;;;;;;23.07;72.89;100992.06;5071650;28;19925;-52
2021/09/15 12:37:24;;;;;;;;;;;;;;;22.98;72.88;100996.66;5072252;28;20346;-54
2021/09/15 12:39:55;;;;;;;;;;;;;;;23.04;70.77;100987.06;5072660;28;19924;-54
2021/09/15 12:42:22;;;;;;;;;;;;;;;22.98;69.78;100987.78;5069755;28;19932;-44
2021/09/15 12:44:59;;;;;;;;;;;;;;;22.92;70.06;100992.03;5072328;28;19932;-48
2021/09/15 12:47:55;;;;;;;;;;;;;;;22.98;71.17;100983.25;5070951;28;19951;-45